createdAt,value
2019-02-15T00:01:30.963Z,6.50
2019-02-15T00:04:00.306Z,7.40
2019-02-15T00:06:29.547Z,6.70
2019-02-15T00:08:58.989Z,6.67
2019-02-15T00:11:28.330Z,7.47
2019-02-15T00:13:57.946Z,7.13
2019-02-15T00:16:27.278Z,6.93
2019-02-15T00:19:24.588Z,6.90
2019-02-15T00:21:54.400Z,7.33
2019-02-15T00:24:23.687Z,7.27
2019-02-15T00:26:53.302Z,7.90
2019-02-15T00:29:22.596Z,7.10
2019-02-15T00:31:52.106Z,7.33
2019-02-15T00:34:21.392Z,7.10
2019-02-15T00:36:53.794Z,7.47
2019-02-15T00:39:23.122Z,6.97
2019-02-15T00:41:52.528Z,7.10
2019-02-15T00:44:21.813Z,6.93
2019-02-15T00:46:58.658Z,7.23
2019-02-15T00:49:41.379Z,6.83
2019-02-15T00:52:26.176Z,7.20
2019-02-15T00:55:27.054Z,7.00
2019-02-15T00:58:30.691Z,7.43
2019-02-15T01:01:21.707Z,6.80
2019-02-15T01:04:04.151Z,7.07
2019-02-15T01:06:42.381Z,7.30
2019-02-15T01:09:29.018Z,7.00
2019-02-15T01:12:23.383Z,7.67
2019-02-15T01:14:52.666Z,7.53
2019-02-15T01:17:22.038Z,7.43
2019-02-15T01:19:51.321Z,7.47
2019-02-15T01:22:20.951Z,7.78
2019-02-15T01:24:50.254Z,8.00
2019-02-15T01:27:35.247Z,7.50
2019-02-15T01:30:33.287Z,7.73
2019-02-15T01:33:23.182Z,7.43
2019-02-15T01:36:09.951Z,8.47
2019-02-15T01:38:47.254Z,7.23
2019-02-15T01:41:33.887Z,7.27
2019-02-15T01:44:08.485Z,7.40
2019-02-15T01:46:47.927Z,7.37
2019-02-15T01:49:17.532Z,8.10
2019-02-15T01:51:46.936Z,7.30
2019-02-15T01:54:16.307Z,7.60
2019-02-15T01:56:45.589Z,7.30
2019-02-15T01:59:15.055Z,7.57
2019-02-15T02:01:44.334Z,7.73
2019-02-15T02:04:13.655Z,8.25
2019-02-15T02:06:43.014Z,8.13
2019-02-15T02:09:12.698Z,8.27
2019-02-15T02:11:42.000Z,7.57
2019-02-15T02:14:11.278Z,8.13
2019-02-15T02:16:40.579Z,7.60
2019-02-15T02:19:09.880Z,8.17
2019-02-15T02:21:39.168Z,7.83
2019-02-15T02:24:08.723Z,7.80
2019-02-15T02:26:38.056Z,8.50
2019-02-15T02:29:07.347Z,7.53
2019-02-15T02:31:36.720Z,8.10
2019-02-15T02:34:06.019Z,7.83
2019-02-15T02:36:55.257Z,7.73
2019-02-15T02:39:25.185Z,7.63
2019-02-15T02:41:54.554Z,7.70
2019-02-15T02:44:23.912Z,7.60
2019-02-15T02:46:53.580Z,7.50
2019-02-15T02:49:22.860Z,7.60
2019-02-15T02:51:52.457Z,7.50
2019-02-15T02:54:21.758Z,7.30
2019-02-15T02:56:51.060Z,7.80
2019-02-15T02:59:20.400Z,7.53
2019-02-15T03:01:49.677Z,6.77
2019-02-15T03:04:19.320Z,7.90
2019-02-15T03:06:48.639Z,7.97
2019-02-15T03:09:18.164Z,7.53
2019-02-15T03:11:47.469Z,7.57
2019-02-15T03:14:16.766Z,7.90
2019-02-15T03:16:46.067Z,7.63
2019-02-15T03:19:15.396Z,7.27
2019-02-15T03:21:44.672Z,7.20
2019-02-15T03:24:14.054Z,7.37
2019-02-15T03:26:43.344Z,7.73
2019-02-15T03:29:12.603Z,7.27
2019-02-15T03:31:41.965Z,7.43
2019-02-15T03:34:11.267Z,6.83
2019-02-15T03:36:49.638Z,6.83
2019-02-15T03:39:32.989Z,6.93
2019-02-15T03:42:02.376Z,7.23
2019-02-15T03:44:32.085Z,6.90
2019-02-15T03:47:01.391Z,7.07
2019-02-15T03:49:30.672Z,6.23
2019-02-15T03:51:59.980Z,6.80
2019-02-15T03:54:29.366Z,6.40
2019-02-15T03:56:58.646Z,6.77
2019-02-15T03:59:28.020Z,6.77
2019-02-15T04:01:57.318Z,5.77
2019-02-15T04:04:26.596Z,6.33
2019-02-15T04:06:55.908Z,6.47
2019-02-15T04:09:25.192Z,6.40
2019-02-15T04:11:54.836Z,6.00
2019-02-15T04:14:32.785Z,6.13
2019-02-15T04:17:08.791Z,6.07
2019-02-15T04:19:39.551Z,6.47
2019-02-15T04:22:14.771Z,6.33
2019-02-15T04:24:41.677Z,6.23
2019-02-15T04:27:38.208Z,6.27
2019-02-15T04:30:09.230Z,6.53
2019-02-15T04:32:39.449Z,5.47
2019-02-15T04:35:08.874Z,6.30
2019-02-15T04:37:54.571Z,6.80
2019-02-15T04:40:23.946Z,6.90
2019-02-15T04:42:52.666Z,6.87
2019-02-15T04:45:21.385Z,7.07
2019-02-15T04:47:50.115Z,6.83
2019-02-15T04:50:18.829Z,7.47
2019-02-15T04:52:47.638Z,6.83
2019-02-15T04:55:16.359Z,6.90
2019-02-15T04:57:45.075Z,6.87
2019-02-15T05:00:13.908Z,6.77
2019-02-15T05:02:42.604Z,6.70
2019-02-15T05:05:11.305Z,6.60
2019-02-15T05:07:40.018Z,6.50
2019-02-15T05:10:08.733Z,6.90
2019-02-15T05:12:37.506Z,6.37
2019-02-15T05:15:06.233Z,6.37
2019-02-15T05:17:34.976Z,6.87
2019-02-15T05:20:03.710Z,6.80
2019-02-15T05:22:32.470Z,6.50
2019-02-15T05:25:01.182Z,6.73
2019-02-15T05:27:30.627Z,6.50
2019-02-15T05:29:59.393Z,6.53
2019-02-15T05:32:28.218Z,6.53
2019-02-15T05:34:56.889Z,6.23
2019-02-15T05:37:25.678Z,6.80
2019-02-15T05:39:54.738Z,7.00
2019-02-15T05:42:23.855Z,7.00
2019-02-15T05:45:03.059Z,7.92
2019-02-15T05:47:22.989Z,8.37
2019-02-15T05:49:51.735Z,7.78
2019-02-15T05:52:20.491Z,7.50
2019-02-15T05:54:49.594Z,7.57
2019-02-15T05:57:18.282Z,7.85
2019-02-15T05:59:47.013Z,8.33
2019-02-15T06:02:15.801Z,8.73
2019-02-15T06:04:44.543Z,8.63
2019-02-15T06:07:13.258Z,8.40
2019-02-15T06:09:41.974Z,8.43
2019-02-15T06:12:10.737Z,8.30
2019-02-15T06:14:39.445Z,8.37
2019-02-15T06:17:08.560Z,8.43
2019-02-15T06:19:37.315Z,7.60
2019-02-15T06:22:06.308Z,8.13
2019-02-15T06:24:35.038Z,7.93
2019-02-15T06:27:03.753Z,7.23
2019-02-15T06:29:32.784Z,7.83
2019-02-15T06:32:01.642Z,7.70
2019-02-15T06:34:30.426Z,7.67
2019-02-15T06:36:59.157Z,8.13
2019-02-15T06:39:27.860Z,7.20
2019-02-15T06:41:56.678Z,7.73
2019-02-15T06:44:25.403Z,7.93
2019-02-15T06:46:54.117Z,7.90
2019-02-15T06:49:22.873Z,7.77
2019-02-15T06:51:51.615Z,8.03
2019-02-15T06:54:20.368Z,8.03
2019-02-15T06:56:49.120Z,7.87
2019-02-15T06:59:36.915Z,7.87
2019-02-15T07:02:25.084Z,7.73
2019-02-15T07:05:02.668Z,6.90
2019-02-15T07:07:31.412Z,7.73
2019-02-15T07:10:00.226Z,7.93
2019-02-15T07:12:29.018Z,8.00
2019-02-15T07:14:57.758Z,7.63
2019-02-15T07:17:26.507Z,7.63
2019-02-15T07:19:55.242Z,7.83
2019-02-15T07:22:24.083Z,7.93
2019-02-15T07:24:52.860Z,7.37
2019-02-15T07:27:21.579Z,7.80
2019-02-15T07:29:50.346Z,7.33
2019-02-15T07:32:19.098Z,7.60
2019-02-15T07:34:47.831Z,7.00
2019-02-15T07:37:16.615Z,9.37
2019-02-15T07:39:45.400Z,7.30
2019-02-15T07:42:14.285Z,7.40
2019-02-15T07:44:43.021Z,6.87
2019-02-15T07:47:11.863Z,6.77
2019-02-15T07:49:40.597Z,7.47
2019-02-15T07:52:09.328Z,6.90
2019-02-15T07:54:38.087Z,7.07
2019-02-15T07:57:06.811Z,7.80
2019-02-15T07:59:35.870Z,6.60
2019-02-15T08:02:04.618Z,6.97
2019-02-15T08:04:33.381Z,7.30
2019-02-15T08:07:02.136Z,7.50
2019-02-15T08:09:30.846Z,7.00
2019-02-15T08:11:59.633Z,6.83
2019-02-15T08:14:28.971Z,6.60
2019-02-15T08:16:58.290Z,7.03
2019-02-15T08:19:27.636Z,7.50
2019-02-15T08:21:56.914Z,7.10
2019-02-15T08:24:26.229Z,7.30
2019-02-15T08:26:55.516Z,7.87
2019-02-15T08:29:24.856Z,7.30
2019-02-15T08:31:54.213Z,6.83
2019-02-15T08:34:23.871Z,6.90
2019-02-15T08:36:53.191Z,6.47
2019-02-15T08:39:22.565Z,7.17
2019-02-15T08:42:01.206Z,5.97
2019-02-15T08:44:22.915Z,6.60
2019-02-15T08:46:52.249Z,7.57
2019-02-15T08:49:21.519Z,6.80
2019-02-15T08:51:50.883Z,6.10
2019-02-15T08:54:20.219Z,5.80
2019-02-15T08:56:49.530Z,6.43
2019-02-15T08:59:19.938Z,6.43
2019-02-15T09:02:03.728Z,7.57
2019-02-15T09:04:33.128Z,6.40
2019-02-15T09:07:02.426Z,6.07
2019-02-15T09:09:31.762Z,6.00
2019-02-15T09:12:01.110Z,6.07
2019-02-15T09:14:30.435Z,6.13
2019-02-15T09:16:59.733Z,6.07
2019-02-15T09:19:29.310Z,5.93
2019-02-15T09:21:58.643Z,5.60
2019-02-15T09:24:28.023Z,6.00
2019-02-15T09:26:59.513Z,5.70
2019-02-15T09:29:29.151Z,5.53
2019-02-15T09:31:58.827Z,5.47
2019-02-15T09:34:28.095Z,5.70
2019-02-15T09:36:57.365Z,5.40
2019-02-15T09:39:26.663Z,5.70
2019-02-15T09:41:55.976Z,7.10
2019-02-15T09:44:25.369Z,6.77
2019-02-15T09:46:54.639Z,6.23
2019-02-15T09:49:24.373Z,6.10
2019-02-15T09:51:55.523Z,5.33
2019-02-15T09:54:24.846Z,5.40
2019-02-15T09:56:54.169Z,5.33
2019-02-15T09:59:24.752Z,6.30
2019-02-15T10:01:54.054Z,5.20
2019-02-15T10:04:23.732Z,5.20
2019-02-15T10:06:53.038Z,5.23
2019-02-15T10:09:22.338Z,5.30
2019-02-15T10:11:51.623Z,5.43
2019-02-15T10:14:20.949Z,5.27
2019-02-15T10:16:50.295Z,4.83
2019-02-15T10:19:22.471Z,4.93
2019-02-15T10:21:50.713Z,4.90
2019-02-15T10:24:19.983Z,5.60
2019-02-15T10:26:49.363Z,4.67
2019-02-15T10:29:18.678Z,4.90
2019-02-15T10:31:48.424Z,5.10
2019-02-15T10:34:17.775Z,5.07
2019-02-15T10:36:47.144Z,4.60
2019-02-15T10:39:16.459Z,4.90
2019-02-15T10:41:45.766Z,4.70
2019-02-15T10:44:15.498Z,4.70
2019-02-15T10:46:44.847Z,4.80
2019-02-15T10:49:14.190Z,4.33
2019-02-15T10:51:44.057Z,4.40
2019-02-15T10:54:13.427Z,5.17
2019-02-15T10:56:42.779Z,4.40
2019-02-15T10:59:12.134Z,4.70
2019-02-15T11:01:41.441Z,4.57
2019-02-15T11:04:10.849Z,4.50
2019-02-15T11:06:41.465Z,4.30
2019-02-15T11:09:13.017Z,4.27
2019-02-15T11:11:42.363Z,4.43
2019-02-15T11:14:11.975Z,4.70
2019-02-15T11:16:46.994Z,3.67
2019-02-15T11:19:12.301Z,4.27
2019-02-15T11:21:41.616Z,4.03
2019-02-15T11:24:10.914Z,4.23
2019-02-15T11:26:40.198Z,4.30
2019-02-15T11:29:09.512Z,4.00
2019-02-15T11:31:38.890Z,4.07
2019-02-15T11:34:08.567Z,3.60
2019-02-15T11:36:37.847Z,4.47
2019-02-15T11:39:07.231Z,4.70
2019-02-15T11:41:36.553Z,4.40
2019-02-15T11:44:05.806Z,4.23
2019-02-15T11:46:35.160Z,4.63
2019-02-15T11:49:04.565Z,3.83
2019-02-15T11:51:33.895Z,4.57
2019-02-15T11:54:03.222Z,4.30
2019-02-15T11:56:32.642Z,4.00
2019-02-15T11:59:02.029Z,3.73
2019-02-15T12:01:31.420Z,4.00
2019-02-15T12:04:00.825Z,3.80
2019-02-15T12:06:30.148Z,3.90
2019-02-15T12:08:59.554Z,3.93
2019-02-15T12:11:28.872Z,4.10
2019-02-15T12:13:58.199Z,3.70
2019-02-15T12:16:27.517Z,3.87
2019-02-15T12:18:56.939Z,3.63
2019-02-15T12:21:26.276Z,4.23
2019-02-15T12:23:55.651Z,3.57
2019-02-15T12:26:25.285Z,3.40
2019-02-15T12:28:54.586Z,3.80
2019-02-15T12:31:23.910Z,3.73
2019-02-15T12:33:53.180Z,3.40
2019-02-15T12:36:22.504Z,3.40
2019-02-15T12:38:51.881Z,4.13
2019-02-15T12:41:21.212Z,3.73
2019-02-15T12:43:50.520Z,3.60
2019-02-15T12:46:19.871Z,4.07
2019-02-15T12:48:49.244Z,3.20
2019-02-15T12:51:18.518Z,3.60
2019-02-15T12:53:48.041Z,3.20
2019-02-15T12:56:17.380Z,3.57
2019-02-15T12:58:46.659Z,3.60
2019-02-15T13:01:16.444Z,3.67
2019-02-15T13:03:45.730Z,3.23
2019-02-15T13:06:15.108Z,3.37
2019-02-15T13:08:45.648Z,3.37
2019-02-15T13:11:15.042Z,3.33
2019-02-15T13:13:44.382Z,3.37
2019-02-15T13:16:13.769Z,3.03
2019-02-15T13:18:43.054Z,3.40
2019-02-15T13:21:12.410Z,3.07
2019-02-15T13:23:41.756Z,3.10
2019-02-15T13:26:11.097Z,3.37
2019-02-15T13:28:41.052Z,3.17
2019-02-15T13:31:10.580Z,3.23
2019-02-15T13:33:39.967Z,3.03
2019-02-15T13:36:09.360Z,2.83
2019-02-15T13:38:38.737Z,3.10
2019-02-15T13:41:08.233Z,3.03
2019-02-15T13:43:37.960Z,3.33
2019-02-15T13:46:07.264Z,3.20
2019-02-15T13:48:36.672Z,2.77
2019-02-15T13:51:06.126Z,2.87
2019-02-15T13:53:35.492Z,3.33
2019-02-15T13:56:04.835Z,2.80
2019-02-15T13:58:34.482Z,3.27
2019-02-15T14:01:04.452Z,3.00
2019-02-15T14:03:33.776Z,2.83
2019-02-15T14:06:03.081Z,2.83
2019-02-15T14:08:32.677Z,3.03
2019-02-15T14:11:02.120Z,2.77
2019-02-15T14:13:31.794Z,2.87
2019-02-15T14:16:01.052Z,2.70
2019-02-15T14:18:30.401Z,3.07
2019-02-15T14:20:59.695Z,2.60
2019-02-15T14:23:29.096Z,2.80
2019-02-15T14:25:58.429Z,2.40
2019-02-15T14:28:28.063Z,2.90
2019-02-15T14:30:57.383Z,2.33
2019-02-15T14:33:26.729Z,2.67
2019-02-15T14:35:56.341Z,2.63
2019-02-15T14:38:25.664Z,2.60
2019-02-15T14:40:54.970Z,2.30
2019-02-15T14:43:24.444Z,2.30
2019-02-15T14:45:53.732Z,2.30
2019-02-15T14:48:23.062Z,2.58
2019-02-15T14:50:52.519Z,2.37
2019-02-15T14:53:21.884Z,2.70
2019-02-15T14:55:51.218Z,2.50
2019-02-15T14:58:20.555Z,2.60
2019-02-15T15:00:49.857Z,2.70
2019-02-15T15:03:19.223Z,2.40
2019-02-15T15:05:49.513Z,3.00
2019-02-15T15:08:19.062Z,2.30
2019-02-15T15:10:48.816Z,2.80
2019-02-15T15:13:18.189Z,2.80
2019-02-15T15:15:47.501Z,3.30
2019-02-15T15:18:16.820Z,2.47
2019-02-15T15:20:46.151Z,2.47
2019-02-15T15:23:15.479Z,2.50
2019-02-15T15:25:45.167Z,2.57
2019-02-15T15:28:14.566Z,2.57
2019-02-15T15:30:43.845Z,2.90
2019-02-15T15:33:13.268Z,2.80
2019-02-15T15:35:42.611Z,2.70
2019-02-15T15:38:12.345Z,2.50
2019-02-15T15:40:41.754Z,2.50
2019-02-15T15:43:11.149Z,2.53
2019-02-15T15:45:40.544Z,2.47
2019-02-15T15:48:09.847Z,2.60
2019-02-15T15:50:40.261Z,2.30
2019-02-15T15:53:09.734Z,2.60
2019-02-15T15:55:40.020Z,2.50
2019-02-15T15:58:09.331Z,2.70
2019-02-15T16:00:39.501Z,2.40
2019-02-15T16:03:08.990Z,2.43
2019-02-15T16:05:43.903Z,2.60
2019-02-15T16:08:18.703Z,2.50
2019-02-15T16:10:48.465Z,2.17
2019-02-15T16:13:27.512Z,2.60
2019-02-15T16:16:01.499Z,2.03
2019-02-15T16:18:34.775Z,2.53
2019-02-15T16:21:09.123Z,2.70
2019-02-15T16:23:43.361Z,2.83
2019-02-15T16:26:14.733Z,2.83
2019-02-15T16:28:56.941Z,2.53
2019-02-15T16:31:28.728Z,2.40
2019-02-15T16:34:14.507Z,2.53
2019-02-15T16:37:03.037Z,2.67
2019-02-15T16:39:37.390Z,2.50
2019-02-15T16:42:10.572Z,2.70
2019-02-15T16:44:45.431Z,2.50
2019-02-15T16:47:34.089Z,2.37
2019-02-15T16:50:20.457Z,2.90
2019-02-15T16:52:58.751Z,2.70
2019-02-15T16:55:42.477Z,2.57
2019-02-15T16:58:35.403Z,2.43
2019-02-15T17:01:07.885Z,2.80
2019-02-15T17:03:37.551Z,2.93
2019-02-15T17:06:09.422Z,2.70
2019-02-15T17:08:39.791Z,2.80
2019-02-15T17:11:10.681Z,2.60
2019-02-15T17:14:02.531Z,2.70
2019-02-15T17:16:32.217Z,2.60
2019-02-15T17:18:55.628Z,2.93
2019-02-15T17:21:42.188Z,2.93
2019-02-15T17:24:12.945Z,3.30
2019-02-15T17:26:42.751Z,3.30
2019-02-15T17:29:12.301Z,3.10
2019-02-15T17:31:43.975Z,3.17
2019-02-15T17:34:13.336Z,3.40
2019-02-15T17:36:43.570Z,3.20
2019-02-15T17:39:12.960Z,3.10
2019-02-15T17:41:42.340Z,3.00
2019-02-15T17:44:12.103Z,3.10
2019-02-15T17:46:42.360Z,3.03
2019-02-15T17:49:13.424Z,2.90
2019-02-15T17:51:43.157Z,3.30
2019-02-15T17:54:14.985Z,3.40
2019-02-15T17:56:44.374Z,3.60
2019-02-15T17:59:13.722Z,3.73
2019-02-15T18:01:42.994Z,3.73
2019-02-15T18:04:12.370Z,3.50
2019-02-15T18:06:43.199Z,4.00
2019-02-15T18:09:14.388Z,3.80
2019-02-15T18:11:43.731Z,3.73
2019-02-15T18:14:13.099Z,4.00
2019-02-15T18:16:45.373Z,3.70
2019-02-15T18:19:14.909Z,3.60
2019-02-15T18:21:47.170Z,4.50
2019-02-15T18:24:21.185Z,4.53
2019-02-15T18:26:50.578Z,3.80
2019-02-15T18:29:22.752Z,4.27
2019-02-15T18:31:52.089Z,4.37
2019-02-15T18:34:21.729Z,4.13
2019-02-15T18:36:51.022Z,4.13
2019-02-15T18:39:20.384Z,3.73
2019-02-15T18:41:49.736Z,4.10
2019-02-15T18:44:19.411Z,3.90
2019-02-15T18:46:48.750Z,4.13
2019-02-15T18:49:19.632Z,4.20
2019-02-15T18:51:50.174Z,4.37
2019-02-15T18:54:20.882Z,4.07
2019-02-15T18:56:50.287Z,3.83
2019-02-15T18:59:19.723Z,3.47
2019-02-15T19:01:49.881Z,4.00
2019-02-15T19:04:19.199Z,3.80
2019-02-15T19:06:48.584Z,4.07
2019-02-15T19:09:17.990Z,4.17
2019-02-15T19:11:47.379Z,3.83
2019-02-15T19:14:16.674Z,3.70
2019-02-15T19:16:46.025Z,3.50
2019-02-15T19:19:15.479Z,3.63
2019-02-15T19:21:44.795Z,3.40
2019-02-15T19:24:14.232Z,3.73
2019-02-15T19:26:43.550Z,3.30
2019-02-15T19:29:12.890Z,3.60
2019-02-15T19:31:42.219Z,3.30
2019-02-15T19:34:11.558Z,3.57
2019-02-15T19:36:40.872Z,3.23
2019-02-15T19:39:12.527Z,3.10
2019-02-15T19:41:41.857Z,3.33
2019-02-15T19:44:11.297Z,3.30
2019-02-15T19:46:40.706Z,3.20
2019-02-15T19:49:09.999Z,3.03
2019-02-15T19:51:39.293Z,3.30
2019-02-15T19:54:08.669Z,3.40
2019-02-15T19:56:38.024Z,3.10
2019-02-15T19:59:07.403Z,3.17
2019-02-15T20:01:36.702Z,3.43
2019-02-15T20:04:06.043Z,3.27
2019-02-15T20:06:35.424Z,3.40
2019-02-15T20:09:06.130Z,3.10
2019-02-15T20:11:39.857Z,3.67
2019-02-15T20:14:09.221Z,3.57
2019-02-15T20:16:46.211Z,3.07
2019-02-15T20:19:15.698Z,3.40
2019-02-15T20:21:50.458Z,3.83
2019-02-15T20:24:23.275Z,3.50
2019-02-15T20:26:52.758Z,3.40
2019-02-15T20:29:22.121Z,3.33
2019-02-15T20:31:51.447Z,3.83
2019-02-15T20:34:20.775Z,3.50
2019-02-15T20:36:50.527Z,3.70
2019-02-15T20:39:19.909Z,3.77
2019-02-15T20:41:49.253Z,4.37
2019-02-15T20:44:18.688Z,4.33
2019-02-15T20:46:48.210Z,3.80
2019-02-15T20:49:17.524Z,3.67
2019-02-15T20:51:46.896Z,5.80
2019-02-15T20:54:16.300Z,4.00
2019-02-15T20:56:45.639Z,4.27
2019-02-15T20:59:14.984Z,4.13
2019-02-15T21:01:44.403Z,3.90
2019-02-15T21:04:15.002Z,4.60
2019-02-15T21:06:53.044Z,3.80
2019-02-15T21:09:22.465Z,3.87
2019-02-15T21:12:21.344Z,3.73
2019-02-15T21:15:11.655Z,3.60
2019-02-15T21:17:46.808Z,3.83
2019-02-15T21:20:30.183Z,3.70
2019-02-15T21:23:06.353Z,4.10
2019-02-15T21:25:40.057Z,3.87
2019-02-15T21:28:29.084Z,4.23
2019-02-15T21:31:04.123Z,4.70
2019-02-15T21:33:37.323Z,4.27
2019-02-15T21:36:06.700Z,5.13
2019-02-15T21:38:36.094Z,4.13
2019-02-15T21:41:05.511Z,5.07
2019-02-15T21:43:35.436Z,4.50
2019-02-15T21:46:04.752Z,4.80
2019-02-15T21:48:34.163Z,4.50
2019-02-15T21:51:03.561Z,4.67
2019-02-15T21:53:41.800Z,4.70
2019-02-15T21:56:17.460Z,5.00
2019-02-15T21:58:47.362Z,4.60
2019-02-15T22:01:17.259Z,5.23
2019-02-15T22:03:46.690Z,5.20
2019-02-15T22:06:16.022Z,5.40
2019-02-15T22:08:45.876Z,5.27
2019-02-15T22:11:17.089Z,5.10
2019-02-15T22:13:46.448Z,4.60
2019-02-15T22:16:15.762Z,5.17
2019-02-15T22:18:45.568Z,5.63
2019-02-15T22:21:17.790Z,5.13
2019-02-15T22:23:51.616Z,5.47
2019-02-15T22:26:22.670Z,5.00
2019-02-15T22:28:52.816Z,5.23
2019-02-15T22:31:22.237Z,5.57
2019-02-15T22:33:51.577Z,5.27
2019-02-15T22:36:20.912Z,5.53
2019-02-15T22:38:50.326Z,5.40
2019-02-15T22:41:19.642Z,5.77
2019-02-15T22:43:48.936Z,6.03
2019-02-15T22:46:18.450Z,4.97
2019-02-15T22:48:47.794Z,4.83
2019-02-15T22:51:17.097Z,5.10
2019-02-15T22:53:46.376Z,4.93
2019-02-15T22:56:33.366Z,6.13
2019-02-15T22:59:33.758Z,5.20
2019-02-15T23:02:03.533Z,5.30
2019-02-15T23:04:32.934Z,5.47
2019-02-15T23:07:02.282Z,5.97
2019-02-15T23:09:31.574Z,6.23
2019-02-15T23:12:00.900Z,5.87
2019-02-15T23:14:30.558Z,5.17
2019-02-15T23:17:00.016Z,5.77
2019-02-15T23:19:29.345Z,5.47
2019-02-15T23:21:58.797Z,5.83
2019-02-15T23:24:28.108Z,5.60
2019-02-15T23:26:57.417Z,5.80
2019-02-15T23:29:26.746Z,6.07
2019-02-15T23:31:56.070Z,6.67
2019-02-15T23:34:25.429Z,5.87
2019-02-15T23:36:54.815Z,6.10
2019-02-15T23:39:24.157Z,6.20
2019-02-15T23:41:53.494Z,5.97
2019-02-15T23:44:22.823Z,5.90
2019-02-15T23:46:52.105Z,6.33
2019-02-15T23:49:21.486Z,6.27
2019-02-15T23:51:50.907Z,6.47
2019-02-15T23:54:20.246Z,6.80
2019-02-15T23:56:51.044Z,6.20
2019-02-15T23:59:20.372Z,6.60
